sensor_id;sensor_type;location;lat;lon;timestamp;P1;durP1;ratioP1;P2;durP2;ratioP2
46613;SDS011;32338;50.430;6.806;2022-12-18T00:02:05;16.90;;;7.32;;
46613;SDS011;32338;50.430;6.806;2022-12-18T00:04:32;20.35;;;6.93;;
46613;SDS011;32338;50.430;6.806;2022-12-18T00:06:59;17.80;;;6.60;;
46613;SDS011;32338;50.430;6.806;2022-12-18T00:09:26;15.98;;;6.20;;
46613;SDS011;32338;50.430;6.806;2022-12-18T00:11:52;15.80;;;6.70;;
46613;SDS011;32338;50.430;6.806;2022-12-18T00:14:19;16.23;;;5.88;;
46613;SDS011;32338;50.430;6.806;2022-12-18T00:16:50;11.90;;;4.90;;
46613;SDS011;32338;50.430;6.806;2022-12-18T00:19:17;16.67;;;7.05;;
46613;SDS011;32338;50.430;6.806;2022-12-18T00:21:43;25.40;;;7.97;;
46613;SDS011;32338;50.430;6.806;2022-12-18T00:24:10;22.33;;;6.70;;
46613;SDS011;32338;50.430;6.806;2022-12-18T00:26:38;18.90;;;7.88;;
46613;SDS011;32338;50.430;6.806;2022-12-18T00:29:06;15.43;;;5.75;;
46613;SDS011;32338;50.430;6.806;2022-12-18T00:31:34;23.95;;;8.80;;
46613;SDS011;32338;50.430;6.806;2022-12-18T00:34:02;24.20;;;7.22;;
46613;SDS011;32338;50.430;6.806;2022-12-18T00:36:30;20.63;;;8.27;;
46613;SDS011;32338;50.430;6.806;2022-12-18T00:38:58;18.08;;;7.65;;
46613;SDS011;32338;50.430;6.806;2022-12-18T00:41:26;21.20;;;7.85;;
46613;SDS011;32338;50.430;6.806;2022-12-18T00:44:12;18.77;;;7.05;;
46613;SDS011;32338;50.430;6.806;2022-12-18T00:46:41;16.13;;;6.75;;
46613;SDS011;32338;50.430;6.806;2022-12-18T00:49:12;17.83;;;7.05;;
46613;SDS011;32338;50.430;6.806;2022-12-18T00:51:39;15.10;;;6.63;;
46613;SDS011;32338;50.430;6.806;2022-12-18T00:54:06;17.63;;;7.88;;
46613;SDS011;32338;50.430;6.806;2022-12-18T00:56:34;14.23;;;6.07;;
46613;SDS011;32338;50.430;6.806;2022-12-18T00:59:02;20.60;;;6.65;;
46613;SDS011;32338;50.430;6.806;2022-12-18T01:01:28;14.63;;;6.20;;
46613;SDS011;32338;50.430;6.806;2022-12-18T01:03:55;15.15;;;6.38;;
46613;SDS011;32338;50.430;6.806;2022-12-18T01:06:24;13.45;;;5.38;;
46613;SDS011;32338;50.430;6.806;2022-12-18T01:08:51;16.48;;;5.93;;
46613;SDS011;32338;50.430;6.806;2022-12-18T01:11:19;15.77;;;5.50;;
46613;SDS011;32338;50.430;6.806;2022-12-18T01:13:46;12.40;;;5.15;;
46613;SDS011;32338;50.430;6.806;2022-12-18T01:16:13;20.42;;;5.53;;
46613;SDS011;32338;50.430;6.806;2022-12-18T01:18:41;14.35;;;4.72;;
46613;SDS011;32338;50.430;6.806;2022-12-18T01:21:08;12.73;;;4.85;;
46613;SDS011;32338;50.430;6.806;2022-12-18T01:23:38;10.68;;;4.93;;
46613;SDS011;32338;50.430;6.806;2022-12-18T01:26:05;9.25;;;4.40;;
46613;SDS011;32338;50.430;6.806;2022-12-18T01:28:32;15.18;;;5.30;;
46613;SDS011;32338;50.430;6.806;2022-12-18T01:31:08;10.73;;;4.88;;
46613;SDS011;32338;50.430;6.806;2022-12-18T01:33:36;9.80;;;4.80;;
46613;SDS011;32338;50.430;6.806;2022-12-18T01:36:03;10.63;;;4.95;;
46613;SDS011;32338;50.430;6.806;2022-12-18T01:38:30;10.95;;;5.50;;
46613;SDS011;32338;50.430;6.806;2022-12-18T01:40:59;15.75;;;6.45;;
46613;SDS011;32338;50.430;6.806;2022-12-18T01:43:40;18.23;;;6.80;;
46613;SDS011;32338;50.430;6.806;2022-12-18T01:46:08;14.95;;;7.00;;
46613;SDS011;32338;50.430;6.806;2022-12-18T01:48:35;11.02;;;6.15;;
46613;SDS011;32338;50.430;6.806;2022-12-18T01:51:02;13.40;;;5.65;;
46613;SDS011;32338;50.430;6.806;2022-12-18T01:53:30;12.38;;;5.50;;
46613;SDS011;32338;50.430;6.806;2022-12-18T01:55:58;13.13;;;6.03;;
46613;SDS011;32338;50.430;6.806;2022-12-18T01:58:27;9.98;;;4.88;;
46613;SDS011;32338;50.430;6.806;2022-12-18T02:01:01;12.48;;;5.15;;
46613;SDS011;32338;50.430;6.806;2022-12-18T02:03:28;13.10;;;4.57;;
46613;SDS011;32338;50.430;6.806;2022-12-18T02:05:56;12.52;;;6.28;;
46613;SDS011;32338;50.430;6.806;2022-12-18T02:08:30;14.20;;;5.50;;
46613;SDS011;32338;50.430;6.806;2022-12-18T02:11:03;18.85;;;6.63;;
46613;SDS011;32338;50.430;6.806;2022-12-18T02:13:36;16.02;;;6.88;;
46613;SDS011;32338;50.430;6.806;2022-12-18T02:16:08;13.38;;;6.00;;
46613;SDS011;32338;50.430;6.806;2022-12-18T02:18:40;12.75;;;5.95;;
46613;SDS011;32338;50.430;6.806;2022-12-18T02:21:12;11.68;;;5.75;;
46613;SDS011;32338;50.430;6.806;2022-12-18T02:23:49;11.13;;;5.32;;
46613;SDS011;32338;50.430;6.806;2022-12-18T02:26:25;16.20;;;5.72;;
46613;SDS011;32338;50.430;6.806;2022-12-18T02:28:56;12.50;;;5.72;;
46613;SDS011;32338;50.430;6.806;2022-12-18T02:31:27;15.00;;;6.13;;
46613;SDS011;32338;50.430;6.806;2022-12-18T02:33:56;14.15;;;5.85;;
46613;SDS011;32338;50.430;6.806;2022-12-18T02:36:26;10.73;;;4.75;;
46613;SDS011;32338;50.430;6.806;2022-12-18T02:38:55;12.07;;;5.50;;
46613;SDS011;32338;50.430;6.806;2022-12-18T02:41:25;10.75;;;4.68;;
46613;SDS011;32338;50.430;6.806;2022-12-18T02:43:53;14.23;;;5.82;;
46613;SDS011;32338;50.430;6.806;2022-12-18T02:46:25;15.65;;;5.70;;
46613;SDS011;32338;50.430;6.806;2022-12-18T02:48:59;11.93;;;5.30;;
46613;SDS011;32338;50.430;6.806;2022-12-18T02:51:33;14.75;;;5.55;;
46613;SDS011;32338;50.430;6.806;2022-12-18T02:54:09;11.77;;;4.82;;
46613;SDS011;32338;50.430;6.806;2022-12-18T02:56:44;15.43;;;5.20;;
46613;SDS011;32338;50.430;6.806;2022-12-18T02:59:17;33.87;;;10.87;;
46613;SDS011;32338;50.430;6.806;2022-12-18T03:01:50;62.55;;;19.88;;
46613;SDS011;32338;50.430;6.806;2022-12-18T03:04:25;42.83;;;15.43;;
46613;SDS011;32338;50.430;6.806;2022-12-18T03:06:54;47.25;;;14.35;;
46613;SDS011;32338;50.430;6.806;2022-12-18T03:09:24;36.65;;;13.18;;
46613;SDS011;32338;50.430;6.806;2022-12-18T03:12:07;23.65;;;9.80;;
46613;SDS011;32338;50.430;6.806;2022-12-18T03:14:53;22.77;;;9.60;;
46613;SDS011;32338;50.430;6.806;2022-12-18T03:17:25;18.17;;;7.63;;
46613;SDS011;32338;50.430;6.806;2022-12-18T03:19:55;18.52;;;6.75;;
46613;SDS011;32338;50.430;6.806;2022-12-18T03:22:24;11.13;;;5.85;;
46613;SDS011;32338;50.430;6.806;2022-12-18T03:24:56;15.85;;;6.82;;
46613;SDS011;32338;50.430;6.806;2022-12-18T03:27:25;21.42;;;6.72;;
46613;SDS011;32338;50.430;6.806;2022-12-18T03:29:56;14.05;;;6.38;;
46613;SDS011;32338;50.430;6.806;2022-12-18T03:32:33;18.60;;;7.18;;
46613;SDS011;32338;50.430;6.806;2022-12-18T03:35:05;13.73;;;6.05;;
46613;SDS011;32338;50.430;6.806;2022-12-18T03:37:34;13.15;;;6.32;;
46613;SDS011;32338;50.430;6.806;2022-12-18T03:40:01;18.58;;;6.35;;
46613;SDS011;32338;50.430;6.806;2022-12-18T03:42:31;15.68;;;5.65;;
46613;SDS011;32338;50.430;6.806;2022-12-18T03:45:06;13.00;;;4.28;;
46613;SDS011;32338;50.430;6.806;2022-12-18T03:47:36;15.95;;;6.38;;
46613;SDS011;32338;50.430;6.806;2022-12-18T03:50:10;16.55;;;5.88;;
46613;SDS011;32338;50.430;6.806;2022-12-18T03:52:43;14.43;;;6.10;;
46613;SDS011;32338;50.430;6.806;2022-12-18T03:55:15;15.90;;;5.93;;
46613;SDS011;32338;50.430;6.806;2022-12-18T03:57:44;13.02;;;5.32;;
46613;SDS011;32338;50.430;6.806;2022-12-18T04:00:14;16.98;;;5.63;;
46613;SDS011;32338;50.430;6.806;2022-12-18T04:02:44;11.23;;;5.53;;
46613;SDS011;32338;50.430;6.806;2022-12-18T04:05:15;13.85;;;5.65;;
46613;SDS011;32338;50.430;6.806;2022-12-18T04:07:43;13.50;;;6.10;;
46613;SDS011;32338;50.430;6.806;2022-12-18T04:10:13;11.93;;;5.87;;
46613;SDS011;32338;50.430;6.806;2022-12-18T04:12:42;11.97;;;4.87;;
46613;SDS011;32338;50.430;6.806;2022-12-18T04:15:10;12.87;;;6.13;;
46613;SDS011;32338;50.430;6.806;2022-12-18T04:17:38;17.13;;;5.97;;
46613;SDS011;32338;50.430;6.806;2022-12-18T04:20:09;11.27;;;5.83;;
46613;SDS011;32338;50.430;6.806;2022-12-18T04:22:36;13.43;;;6.20;;
46613;SDS011;32338;50.430;6.806;2022-12-18T04:25:03;13.53;;;5.67;;
46613;SDS011;32338;50.430;6.806;2022-12-18T04:27:30;15.13;;;5.53;;
46613;SDS011;32338;50.430;6.806;2022-12-18T04:29:57;12.43;;;6.78;;
46613;SDS011;32338;50.430;6.806;2022-12-18T04:32:25;14.15;;;6.03;;
46613;SDS011;32338;50.430;6.806;2022-12-18T04:34:52;14.17;;;5.73;;
46613;SDS011;32338;50.430;6.806;2022-12-18T04:37:18;12.57;;;5.65;;
46613;SDS011;32338;50.430;6.806;2022-12-18T04:39:45;19.37;;;6.67;;
46613;SDS011;32338;50.430;6.806;2022-12-18T04:42:12;13.23;;;6.30;;
46613;SDS011;32338;50.430;6.806;2022-12-18T04:44:38;12.53;;;6.53;;
46613;SDS011;32338;50.430;6.806;2022-12-18T04:47:05;15.23;;;6.27;;
46613;SDS011;32338;50.430;6.806;2022-12-18T04:49:33;14.97;;;6.40;;
46613;SDS011;32338;50.430;6.806;2022-12-18T04:52:00;14.10;;;6.30;;
46613;SDS011;32338;50.430;6.806;2022-12-18T04:54:27;10.97;;;5.53;;
46613;SDS011;32338;50.430;6.806;2022-12-18T04:56:53;13.60;;;5.70;;
46613;SDS011;32338;50.430;6.806;2022-12-18T04:59:20;14.97;;;6.67;;
46613;SDS011;32338;50.430;6.806;2022-12-18T05:01:47;13.47;;;6.43;;
46613;SDS011;32338;50.430;6.806;2022-12-18T05:04:13;17.93;;;6.00;;
46613;SDS011;32338;50.430;6.806;2022-12-18T05:06:42;15.97;;;6.17;;
46613;SDS011;32338;50.430;6.806;2022-12-18T05:09:08;15.00;;;6.67;;
46613;SDS011;32338;50.430;6.806;2022-12-18T05:11:35;20.73;;;6.27;;
46613;SDS011;32338;50.430;6.806;2022-12-18T05:14:01;11.60;;;5.78;;
46613;SDS011;32338;50.430;6.806;2022-12-18T05:16:28;16.60;;;6.35;;
46613;SDS011;32338;50.430;6.806;2022-12-18T05:18:55;18.15;;;7.93;;
46613;SDS011;32338;50.430;6.806;2022-12-18T05:21:21;15.48;;;7.32;;
46613;SDS011;32338;50.430;6.806;2022-12-18T05:23:50;16.50;;;6.70;;
46613;SDS011;32338;50.430;6.806;2022-12-18T05:26:17;18.25;;;7.03;;
46613;SDS011;32338;50.430;6.806;2022-12-18T05:28:44;17.35;;;6.82;;
46613;SDS011;32338;50.430;6.806;2022-12-18T05:31:12;13.70;;;6.70;;
46613;SDS011;32338;50.430;6.806;2022-12-18T05:33:38;18.55;;;6.82;;
46613;SDS011;32338;50.430;6.806;2022-12-18T05:36:06;14.60;;;6.13;;
46613;SDS011;32338;50.430;6.806;2022-12-18T05:38:34;16.00;;;5.72;;
46613;SDS011;32338;50.430;6.806;2022-12-18T05:41:04;13.02;;;5.85;;
46613;SDS011;32338;50.430;6.806;2022-12-18T05:43:33;13.70;;;5.07;;
46613;SDS011;32338;50.430;6.806;2022-12-18T05:46:03;16.23;;;6.32;;
46613;SDS011;32338;50.430;6.806;2022-12-18T05:48:30;11.20;;;5.75;;
46613;SDS011;32338;50.430;6.806;2022-12-18T05:51:02;9.85;;;5.07;;
46613;SDS011;32338;50.430;6.806;2022-12-18T05:53:30;13.88;;;6.75;;
46613;SDS011;32338;50.430;6.806;2022-12-18T05:55:59;16.20;;;7.07;;
46613;SDS011;32338;50.430;6.806;2022-12-18T05:58:27;16.15;;;7.20;;
46613;SDS011;32338;50.430;6.806;2022-12-18T06:00:54;19.27;;;7.88;;
46613;SDS011;32338;50.430;6.806;2022-12-18T06:03:21;17.00;;;7.18;;
46613;SDS011;32338;50.430;6.806;2022-12-18T06:05:48;17.20;;;6.90;;
46613;SDS011;32338;50.430;6.806;2022-12-18T06:08:14;12.20;;;6.63;;
46613;SDS011;32338;50.430;6.806;2022-12-18T06:10:41;13.13;;;5.88;;
46613;SDS011;32338;50.430;6.806;2022-12-18T06:13:08;13.88;;;6.07;;
46613;SDS011;32338;50.430;6.806;2022-12-18T06:15:37;9.70;;;6.18;;
46613;SDS011;32338;50.430;6.806;2022-12-18T06:18:05;11.13;;;5.03;;
46613;SDS011;32338;50.430;6.806;2022-12-18T06:20:32;14.55;;;5.72;;
46613;SDS011;32338;50.430;6.806;2022-12-18T06:22:58;12.43;;;6.45;;
46613;SDS011;32338;50.430;6.806;2022-12-18T06:25:25;14.23;;;6.18;;
46613;SDS011;32338;50.430;6.806;2022-12-18T06:27:52;11.93;;;6.30;;
46613;SDS011;32338;50.430;6.806;2022-12-18T06:30:18;12.30;;;5.43;;
46613;SDS011;32338;50.430;6.806;2022-12-18T06:32:47;12.98;;;5.80;;
46613;SDS011;32338;50.430;6.806;2022-12-18T06:35:14;13.57;;;6.70;;
46613;SDS011;32338;50.430;6.806;2022-12-18T06:37:40;17.45;;;6.93;;
46613;SDS011;32338;50.430;6.806;2022-12-18T06:40:07;12.15;;;5.80;;
46613;SDS011;32338;50.430;6.806;2022-12-18T06:42:35;10.10;;;6.03;;
46613;SDS011;32338;50.430;6.806;2022-12-18T06:45:01;14.10;;;7.15;;
46613;SDS011;32338;50.430;6.806;2022-12-18T06:47:28;11.40;;;6.53;;
46613;SDS011;32338;50.430;6.806;2022-12-18T06:49:56;12.80;;;7.13;;
46613;SDS011;32338;50.430;6.806;2022-12-18T06:52:23;16.13;;;7.10;;
46613;SDS011;32338;50.430;6.806;2022-12-18T06:54:50;15.93;;;6.63;;
46613;SDS011;32338;50.430;6.806;2022-12-18T06:57:16;13.95;;;7.30;;
46613;SDS011;32338;50.430;6.806;2022-12-18T06:59:43;12.68;;;6.50;;
46613;SDS011;32338;50.430;6.806;2022-12-18T07:02:10;14.83;;;6.90;;
46613;SDS011;32338;50.430;6.806;2022-12-18T07:04:37;15.93;;;7.18;;
46613;SDS011;32338;50.430;6.806;2022-12-18T07:07:05;12.57;;;5.78;;
46613;SDS011;32338;50.430;6.806;2022-12-18T07:09:32;14.50;;;6.35;;
46613;SDS011;32338;50.430;6.806;2022-12-18T07:11:59;15.02;;;6.53;;
46613;SDS011;32338;50.430;6.806;2022-12-18T07:14:25;13.93;;;6.72;;
46613;SDS011;32338;50.430;6.806;2022-12-18T07:16:52;18.20;;;6.80;;
46613;SDS011;32338;50.430;6.806;2022-12-18T07:19:18;15.55;;;6.90;;
46613;SDS011;32338;50.430;6.806;2022-12-18T07:21:52;14.82;;;7.43;;
46613;SDS011;32338;50.430;6.806;2022-12-18T07:24:20;15.13;;;7.47;;
46613;SDS011;32338;50.430;6.806;2022-12-18T07:26:47;16.27;;;7.70;;
46613;SDS011;32338;50.430;6.806;2022-12-18T07:29:14;14.90;;;7.38;;
46613;SDS011;32338;50.430;6.806;2022-12-18T07:31:41;11.88;;;6.43;;
46613;SDS011;32338;50.430;6.806;2022-12-18T07:34:09;12.40;;;6.13;;
46613;SDS011;32338;50.430;6.806;2022-12-18T07:36:36;15.00;;;7.53;;
46613;SDS011;32338;50.430;6.806;2022-12-18T07:39:03;13.52;;;5.53;;
46613;SDS011;32338;50.430;6.806;2022-12-18T07:41:31;12.18;;;6.88;;
46613;SDS011;32338;50.430;6.806;2022-12-18T07:43:57;16.30;;;7.20;;
46613;SDS011;32338;50.430;6.806;2022-12-18T07:46:24;13.57;;;6.32;;
46613;SDS011;32338;50.430;6.806;2022-12-18T07:48:51;14.75;;;6.93;;
46613;SDS011;32338;50.430;6.806;2022-12-18T07:51:17;20.90;;;7.68;;
46613;SDS011;32338;50.430;6.806;2022-12-18T07:53:44;18.35;;;8.52;;
46613;SDS011;32338;50.430;6.806;2022-12-18T07:56:11;15.38;;;6.65;;
46613;SDS011;32338;50.430;6.806;2022-12-18T07:58:40;14.95;;;7.25;;
46613;SDS011;32338;50.430;6.806;2022-12-18T08:01:07;14.90;;;7.88;;
46613;SDS011;32338;50.430;6.806;2022-12-18T08:03:36;16.45;;;7.85;;
46613;SDS011;32338;50.430;6.806;2022-12-18T08:06:04;12.75;;;6.95;;
46613;SDS011;32338;50.430;6.806;2022-12-18T08:08:33;17.40;;;7.90;;
46613;SDS011;32338;50.430;6.806;2022-12-18T08:11:00;19.08;;;8.95;;
46613;SDS011;32338;50.430;6.806;2022-12-18T08:13:27;16.13;;;10.55;;
46613;SDS011;32338;50.430;6.806;2022-12-18T08:15:56;19.73;;;8.68;;
46613;SDS011;32338;50.430;6.806;2022-12-18T08:18:24;18.55;;;9.55;;
46613;SDS011;32338;50.430;6.806;2022-12-18T08:20:51;15.23;;;7.03;;
46613;SDS011;32338;50.430;6.806;2022-12-18T08:23:17;15.75;;;6.78;;
46613;SDS011;32338;50.430;6.806;2022-12-18T08:25:44;16.45;;;6.88;;
46613;SDS011;32338;50.430;6.806;2022-12-18T08:28:11;18.58;;;8.35;;
46613;SDS011;32338;50.430;6.806;2022-12-18T08:30:37;18.48;;;9.10;;
46613;SDS011;32338;50.430;6.806;2022-12-18T08:33:06;18.30;;;8.35;;
46613;SDS011;32338;50.430;6.806;2022-12-18T08:35:34;21.30;;;9.07;;
46613;SDS011;32338;50.430;6.806;2022-12-18T08:38:02;22.35;;;9.75;;
46613;SDS011;32338;50.430;6.806;2022-12-18T08:40:29;20.05;;;9.23;;
46613;SDS011;32338;50.430;6.806;2022-12-18T08:42:58;20.45;;;8.50;;
46613;SDS011;32338;50.430;6.806;2022-12-18T08:45:42;19.23;;;8.98;;
46613;SDS011;32338;50.430;6.806;2022-12-18T08:48:11;20.10;;;8.50;;
46613;SDS011;32338;50.430;6.806;2022-12-18T08:50:37;21.77;;;9.50;;
46613;SDS011;32338;50.430;6.806;2022-12-18T08:53:04;21.08;;;10.10;;
46613;SDS011;32338;50.430;6.806;2022-12-18T08:55:34;22.88;;;10.82;;
46613;SDS011;32338;50.430;6.806;2022-12-18T08:58:00;21.50;;;8.70;;
46613;SDS011;32338;50.430;6.806;2022-12-18T09:00:27;22.85;;;10.48;;
46613;SDS011;32338;50.430;6.806;2022-12-18T09:02:54;21.00;;;9.25;;
46613;SDS011;32338;50.430;6.806;2022-12-18T09:05:22;19.65;;;8.63;;
46613;SDS011;32338;50.430;6.806;2022-12-18T09:07:48;19.15;;;9.30;;
46613;SDS011;32338;50.430;6.806;2022-12-18T09:10:15;18.67;;;8.73;;
46613;SDS011;32338;50.430;6.806;2022-12-18T09:12:41;16.95;;;9.23;;
46613;SDS011;32338;50.430;6.806;2022-12-18T09:15:08;20.10;;;9.30;;
46613;SDS011;32338;50.430;6.806;2022-12-18T09:17:36;20.70;;;9.57;;
46613;SDS011;32338;50.430;6.806;2022-12-18T09:20:03;20.50;;;9.15;;
46613;SDS011;32338;50.430;6.806;2022-12-18T09:22:31;20.13;;;10.00;;
46613;SDS011;32338;50.430;6.806;2022-12-18T09:24:58;21.05;;;8.95;;
46613;SDS011;32338;50.430;6.806;2022-12-18T09:27:25;20.63;;;10.40;;
46613;SDS011;32338;50.430;6.806;2022-12-18T09:29:52;23.15;;;10.32;;
46613;SDS011;32338;50.430;6.806;2022-12-18T09:32:18;27.55;;;9.60;;
46613;SDS011;32338;50.430;6.806;2022-12-18T09:34:45;19.02;;;9.43;;
46613;SDS011;32338;50.430;6.806;2022-12-18T09:37:12;22.27;;;9.02;;
46613;SDS011;32338;50.430;6.806;2022-12-18T09:39:40;21.10;;;9.63;;
46613;SDS011;32338;50.430;6.806;2022-12-18T09:42:08;22.48;;;10.13;;
46613;SDS011;32338;50.430;6.806;2022-12-18T09:44:40;20.17;;;9.18;;
46613;SDS011;32338;50.430;6.806;2022-12-18T09:47:12;19.85;;;9.50;;
46613;SDS011;32338;50.430;6.806;2022-12-18T09:49:44;22.27;;;9.80;;
46613;SDS011;32338;50.430;6.806;2022-12-18T09:52:14;23.00;;;10.63;;
46613;SDS011;32338;50.430;6.806;2022-12-18T09:54:48;22.48;;;9.60;;
46613;SDS011;32338;50.430;6.806;2022-12-18T09:57:18;21.40;;;9.98;;
46613;SDS011;32338;50.430;6.806;2022-12-18T09:59:49;24.70;;;10.25;;
46613;SDS011;32338;50.430;6.806;2022-12-18T10:02:19;25.33;;;11.85;;
46613;SDS011;32338;50.430;6.806;2022-12-18T10:04:49;25.00;;;10.35;;
46613;SDS011;32338;50.430;6.806;2022-12-18T10:07:29;22.08;;;9.75;;
46613;SDS011;32338;50.430;6.806;2022-12-18T10:10:06;22.48;;;10.27;;
46613;SDS011;32338;50.430;6.806;2022-12-18T10:12:41;15.80;;;7.55;;
46613;SDS011;32338;50.430;6.806;2022-12-18T10:15:13;21.95;;;10.30;;
46613;SDS011;32338;50.430;6.806;2022-12-18T10:17:46;22.25;;;10.30;;
46613;SDS011;32338;50.430;6.806;2022-12-18T10:20:20;24.70;;;11.38;;
46613;SDS011;32338;50.430;6.806;2022-12-18T10:22:53;21.35;;;9.85;;
46613;SDS011;32338;50.430;6.806;2022-12-18T10:25:30;19.75;;;8.20;;
46613;SDS011;32338;50.430;6.806;2022-12-18T10:28:06;22.50;;;10.05;;
46613;SDS011;32338;50.430;6.806;2022-12-18T10:30:36;22.52;;;10.38;;
46613;SDS011;32338;50.430;6.806;2022-12-18T10:33:05;25.48;;;11.70;;
46613;SDS011;32338;50.430;6.806;2022-12-18T10:35:32;19.58;;;9.90;;
46613;SDS011;32338;50.430;6.806;2022-12-18T10:38:00;24.23;;;11.20;;
46613;SDS011;32338;50.430;6.806;2022-12-18T10:40:33;24.50;;;11.25;;
46613;SDS011;32338;50.430;6.806;2022-12-18T10:43:15;22.08;;;9.65;;
46613;SDS011;32338;50.430;6.806;2022-12-18T10:45:56;24.55;;;11.00;;
46613;SDS011;32338;50.430;6.806;2022-12-18T10:48:25;24.38;;;11.68;;
46613;SDS011;32338;50.430;6.806;2022-12-18T10:50:53;23.80;;;11.10;;
46613;SDS011;32338;50.430;6.806;2022-12-18T10:53:22;24.77;;;11.38;;
46613;SDS011;32338;50.430;6.806;2022-12-18T10:55:52;22.50;;;11.10;;
46613;SDS011;32338;50.430;6.806;2022-12-18T10:58:22;21.73;;;10.48;;
46613;SDS011;32338;50.430;6.806;2022-12-18T11:03:34;23.08;;;10.07;;
46613;SDS011;32338;50.430;6.806;2022-12-18T11:06:04;19.25;;;10.30;;
46613;SDS011;32338;50.430;6.806;2022-12-18T11:08:32;22.48;;;11.25;;
46613;SDS011;32338;50.430;6.806;2022-12-18T11:11:01;25.17;;;11.32;;
46613;SDS011;32338;50.430;6.806;2022-12-18T11:13:29;23.42;;;11.40;;
46613;SDS011;32338;50.430;6.806;2022-12-18T11:15:57;24.52;;;10.57;;
46613;SDS011;32338;50.430;6.806;2022-12-18T11:18:25;22.88;;;10.77;;
46613;SDS011;32338;50.430;6.806;2022-12-18T11:20:55;24.40;;;10.85;;
46613;SDS011;32338;50.430;6.806;2022-12-18T11:23:23;21.50;;;10.57;;
46613;SDS011;32338;50.430;6.806;2022-12-18T11:25:52;24.30;;;11.90;;
46613;SDS011;32338;50.430;6.806;2022-12-18T11:28:33;20.67;;;9.65;;
46613;SDS011;32338;50.430;6.806;2022-12-18T11:31:16;23.40;;;11.52;;
46613;SDS011;32338;50.430;6.806;2022-12-18T11:36:36;25.13;;;11.57;;
46613;SDS011;32338;50.430;6.806;2022-12-18T11:39:08;21.27;;;11.05;;
46613;SDS011;32338;50.430;6.806;2022-12-18T11:41:43;26.15;;;11.82;;
46613;SDS011;32338;50.430;6.806;2022-12-18T11:44:36;22.50;;;11.68;;
46613;SDS011;32338;50.430;6.806;2022-12-18T11:47:09;26.77;;;13.65;;
46613;SDS011;32338;50.430;6.806;2022-12-18T11:49:46;21.90;;;10.15;;
46613;SDS011;32338;50.430;6.806;2022-12-18T11:52:15;27.63;;;13.25;;
46613;SDS011;32338;50.430;6.806;2022-12-18T11:54:45;29.15;;;13.43;;
46613;SDS011;32338;50.430;6.806;2022-12-18T11:57:18;25.77;;;13.05;;
46613;SDS011;32338;50.430;6.806;2022-12-18T12:00:01;27.33;;;12.70;;
46613;SDS011;32338;50.430;6.806;2022-12-18T12:02:41;31.30;;;13.13;;
46613;SDS011;32338;50.430;6.806;2022-12-18T12:05:20;29.83;;;13.13;;
46613;SDS011;32338;50.430;6.806;2022-12-18T12:07:58;24.33;;;12.35;;
46613;SDS011;32338;50.430;6.806;2022-12-18T12:10:33;29.25;;;12.75;;
46613;SDS011;32338;50.430;6.806;2022-12-18T12:13:13;30.55;;;13.85;;
46613;SDS011;32338;50.430;6.806;2022-12-18T12:15:58;23.77;;;12.00;;
46613;SDS011;32338;50.430;6.806;2022-12-18T12:18:36;28.67;;;15.05;;
46613;SDS011;32338;50.430;6.806;2022-12-18T12:21:15;26.30;;;12.85;;
46613;SDS011;32338;50.430;6.806;2022-12-18T12:23:50;24.73;;;12.07;;
46613;SDS011;32338;50.430;6.806;2022-12-18T12:26:22;26.75;;;12.18;;
46613;SDS011;32338;50.430;6.806;2022-12-18T12:28:59;26.75;;;12.35;;
46613;SDS011;32338;50.430;6.806;2022-12-18T12:31:35;26.65;;;12.23;;
46613;SDS011;32338;50.430;6.806;2022-12-18T12:34:18;30.75;;;13.20;;
46613;SDS011;32338;50.430;6.806;2022-12-18T12:36:52;29.38;;;12.82;;
46613;SDS011;32338;50.430;6.806;2022-12-18T12:39:30;26.60;;;12.82;;
46613;SDS011;32338;50.430;6.806;2022-12-18T12:41:59;29.98;;;12.52;;
46613;SDS011;32338;50.430;6.806;2022-12-18T12:44:45;31.38;;;12.23;;
46613;SDS011;32338;50.430;6.806;2022-12-18T12:47:18;27.70;;;12.90;;
46613;SDS011;32338;50.430;6.806;2022-12-18T12:49:50;28.33;;;12.23;;
46613;SDS011;32338;50.430;6.806;2022-12-18T12:52:18;26.48;;;12.32;;
46613;SDS011;32338;50.430;6.806;2022-12-18T12:54:53;25.15;;;11.85;;
46613;SDS011;32338;50.430;6.806;2022-12-18T12:57:22;25.73;;;12.23;;
46613;SDS011;32338;50.430;6.806;2022-12-18T12:59:56;25.98;;;12.13;;
46613;SDS011;32338;50.430;6.806;2022-12-18T13:02:30;26.17;;;12.00;;
46613;SDS011;32338;50.430;6.806;2022-12-18T13:05:01;28.15;;;13.32;;
46613;SDS011;32338;50.430;6.806;2022-12-18T13:07:39;33.05;;;13.95;;
46613;SDS011;32338;50.430;6.806;2022-12-18T13:13:00;25.85;;;12.02;;
46613;SDS011;32338;50.430;6.806;2022-12-18T13:15:30;25.83;;;12.95;;
46613;SDS011;32338;50.430;6.806;2022-12-18T13:18:12;27.80;;;13.50;;
46613;SDS011;32338;50.430;6.806;2022-12-18T13:20:44;28.20;;;13.55;;
46613;SDS011;32338;50.430;6.806;2022-12-18T13:25:57;26.10;;;11.90;;
46613;SDS011;32338;50.430;6.806;2022-12-18T13:28:49;27.63;;;13.65;;
46613;SDS011;32338;50.430;6.806;2022-12-18T13:34:34;30.58;;;13.18;;
46613;SDS011;32338;50.430;6.806;2022-12-18T13:43:28;28.48;;;12.55;;
46613;SDS011;32338;50.430;6.806;2022-12-18T13:48:29;26.63;;;12.10;;
46613;SDS011;32338;50.430;6.806;2022-12-18T13:51:01;28.70;;;12.80;;
46613;SDS011;32338;50.430;6.806;2022-12-18T13:53:33;28.08;;;13.52;;
46613;SDS011;32338;50.430;6.806;2022-12-18T13:56:03;29.67;;;13.90;;
46613;SDS011;32338;50.430;6.806;2022-12-18T13:58:31;26.73;;;12.32;;
46613;SDS011;32338;50.430;6.806;2022-12-18T14:00:58;32.25;;;13.35;;
46613;SDS011;32338;50.430;6.806;2022-12-18T14:03:27;25.42;;;12.68;;
46613;SDS011;32338;50.430;6.806;2022-12-18T14:05:56;26.42;;;12.00;;
46613;SDS011;32338;50.430;6.806;2022-12-18T14:08:29;28.80;;;13.55;;
46613;SDS011;32338;50.430;6.806;2022-12-18T14:11:00;29.60;;;13.60;;
46613;SDS011;32338;50.430;6.806;2022-12-18T14:13:30;31.77;;;12.75;;
46613;SDS011;32338;50.430;6.806;2022-12-18T14:16:00;30.25;;;13.50;;
46613;SDS011;32338;50.430;6.806;2022-12-18T14:18:29;29.73;;;13.35;;
46613;SDS011;32338;50.430;6.806;2022-12-18T14:21:04;29.55;;;12.77;;
46613;SDS011;32338;50.430;6.806;2022-12-18T14:23:34;28.88;;;12.80;;
46613;SDS011;32338;50.430;6.806;2022-12-18T14:26:18;23.00;;;12.23;;
46613;SDS011;32338;50.430;6.806;2022-12-18T14:28:48;25.92;;;12.48;;
46613;SDS011;32338;50.430;6.806;2022-12-18T14:31:18;30.98;;;12.88;;
46613;SDS011;32338;50.430;6.806;2022-12-18T14:33:45;31.33;;;15.60;;
46613;SDS011;32338;50.430;6.806;2022-12-18T14:36:14;30.45;;;13.77;;
46613;SDS011;32338;50.430;6.806;2022-12-18T14:38:47;31.30;;;13.43;;
46613;SDS011;32338;50.430;6.806;2022-12-18T14:41:15;26.50;;;13.45;;
46613;SDS011;32338;50.430;6.806;2022-12-18T14:43:44;29.45;;;13.02;;
46613;SDS011;32338;50.430;6.806;2022-12-18T14:46:25;25.58;;;12.75;;
46613;SDS011;32338;50.430;6.806;2022-12-18T14:48:54;28.00;;;13.45;;
46613;SDS011;32338;50.430;6.806;2022-12-18T14:51:23;27.55;;;12.93;;
46613;SDS011;32338;50.430;6.806;2022-12-18T14:53:54;27.20;;;12.18;;
46613;SDS011;32338;50.430;6.806;2022-12-18T14:56:23;28.20;;;13.63;;
46613;SDS011;32338;50.430;6.806;2022-12-18T14:58:53;24.98;;;12.80;;
46613;SDS011;32338;50.430;6.806;2022-12-18T15:01:28;24.23;;;12.02;;
46613;SDS011;32338;50.430;6.806;2022-12-18T15:03:58;32.58;;;13.55;;
46613;SDS011;32338;50.430;6.806;2022-12-18T15:06:26;28.80;;;13.00;;
46613;SDS011;32338;50.430;6.806;2022-12-18T15:08:58;27.58;;;13.73;;
46613;SDS011;32338;50.430;6.806;2022-12-18T15:11:32;26.58;;;13.30;;